sensor_id;sensor_type;location;lat;lon;timestamp;pressure;altitude;pressure_sealevel;temperature;humidity
72855;BME280;60991;51.278;22.550;2024-03-08T00:00:06;99971.22;;;1.86;64.81
72855;BME280;60991;51.278;22.550;2024-03-08T00:01:36;99963.38;;;1.86;64.71
72855;BME280;60991;51.278;22.550;2024-03-08T00:03:06;99970.91;;;1.89;64.42
72855;BME280;60991;51.278;22.550;2024-03-08T00:04:36;99969.94;;;1.90;64.09
72855;BME280;60991;51.278;22.550;2024-03-08T00:06:07;99963.53;;;1.92;64.43
72855;BME280;60991;51.278;22.550;2024-03-08T00:07:41;99965.00;;;1.95;63.75
72855;BME280;60991;51.278;22.550;2024-03-08T00:09:12;99954.22;;;1.98;63.93
72855;BME280;60991;51.278;22.550;2024-03-08T00:10:42;99958.28;;;2.00;64.03
72855;BME280;60991;51.278;22.550;2024-03-08T00:12:12;99960.91;;;2.00;63.34
72855;BME280;60991;51.278;22.550;2024-03-08T00:13:42;99954.22;;;1.98;63.26
72855;BME280;60991;51.278;22.550;2024-03-08T00:15:14;99964.69;;;1.98;63.32
72855;BME280;60991;51.278;22.550;2024-03-08T00:16:44;99964.84;;;1.96;64.39
72855;BME280;60991;51.278;22.550;2024-03-08T00:18:15;99950.78;;;1.97;64.21
72855;BME280;60991;51.278;22.550;2024-03-08T00:19:45;99949.63;;;2.00;64.13
72855;BME280;60991;51.278;22.550;2024-03-08T00:21:15;99957.31;;;2.01;64.20
72855;BME280;60991;51.278;22.550;2024-03-08T00:22:45;99954.03;;;1.99;63.50
72855;BME280;60991;51.278;22.550;2024-03-08T00:24:16;99946.53;;;1.96;63.84
72855;BME280;60991;51.278;22.550;2024-03-08T00:25:46;99950.94;;;1.96;63.74
72855;BME280;60991;51.278;22.550;2024-03-08T00:27:16;99949.97;;;1.97;64.26
72855;BME280;60991;51.278;22.550;2024-03-08T00:28:46;99951.91;;;1.95;64.16
72855;BME280;60991;51.278;22.550;2024-03-08T00:30:17;99943.41;;;1.93;64.02
72855;BME280;60991;51.278;22.550;2024-03-08T00:31:47;99949.16;;;1.88;63.55
72855;BME280;60991;51.278;22.550;2024-03-08T00:33:17;99946.88;;;1.85;63.70
72855;BME280;60991;51.278;22.550;2024-03-08T00:34:47;99940.63;;;1.86;64.12
72855;BME280;60991;51.278;22.550;2024-03-08T00:36:17;99936.88;;;1.89;64.19
72855;BME280;60991;51.278;22.550;2024-03-08T00:37:47;99944.41;;;1.92;63.76
72855;BME280;60991;51.278;22.550;2024-03-08T00:39:18;99937.34;;;1.92;63.81
72855;BME280;60991;51.278;22.550;2024-03-08T00:40:48;99938.84;;;1.95;63.20
72855;BME280;60991;51.278;22.550;2024-03-08T00:42:19;99946.53;;;1.96;63.40
72855;BME280;60991;51.278;22.550;2024-03-08T00:43:50;99933.44;;;1.96;63.58
72855;BME280;60991;51.278;22.550;2024-03-08T00:45:20;99937.69;;;1.97;63.72
72855;BME280;60991;51.278;22.550;2024-03-08T00:46:50;99936.03;;;1.96;63.67
72855;BME280;60991;51.278;22.550;2024-03-08T00:48:20;99924.28;;;1.92;63.00
72855;BME280;60991;51.278;22.550;2024-03-08T00:49:51;99927.06;;;1.91;63.33
72855;BME280;60991;51.278;22.550;2024-03-08T00:51:21;99933.28;;;1.90;63.74
72855;BME280;60991;51.278;22.550;2024-03-08T00:52:51;99927.38;;;1.88;64.14
72855;BME280;60991;51.278;22.550;2024-03-08T00:54:21;99930.66;;;1.90;63.44
72855;BME280;60991;51.278;22.550;2024-03-08T00:55:51;99928.69;;;1.92;63.65
72855;BME280;60991;51.278;22.550;2024-03-08T00:57:22;99931.97;;;1.94;63.97
72855;BME280;60991;51.278;22.550;2024-03-08T00:58:52;99925.91;;;1.93;64.00
72855;BME280;60991;51.278;22.550;2024-03-08T01:00:22;99926.72;;;1.94;63.59
72855;BME280;60991;51.278;22.550;2024-03-08T01:01:52;99925.91;;;1.93;63.43
72855;BME280;60991;51.278;22.550;2024-03-08T01:03:23;99925.91;;;1.93;63.21
72855;BME280;60991;51.278;22.550;2024-03-08T01:04:53;99920.19;;;1.90;63.26
72855;BME280;60991;51.278;22.550;2024-03-08T01:06:23;99926.72;;;1.86;63.71
72855;BME280;60991;51.278;22.550;2024-03-08T01:07:53;99920.88;;;1.84;63.52
72855;BME280;60991;51.278;22.550;2024-03-08T01:09:24;99921.38;;;1.79;63.61
72855;BME280;60991;51.278;22.550;2024-03-08T01:10:54;99913.69;;;1.78;63.75
72855;BME280;60991;51.278;22.550;2024-03-08T01:12:25;99917.44;;;1.75;63.48
72855;BME280;60991;51.278;22.550;2024-03-08T01:13:55;99920.06;;;1.75;63.53
72855;BME280;60991;51.278;22.550;2024-03-08T01:15:25;99921.06;;;1.74;64.08
72855;BME280;60991;51.278;22.550;2024-03-08T01:16:55;99928.09;;;1.73;63.82
72855;BME280;60991;51.278;22.550;2024-03-08T01:18:25;99923.00;;;1.72;64.10
72855;BME280;60991;51.278;22.550;2024-03-08T01:19:56;99915.97;;;1.72;64.13
72855;BME280;60991;51.278;22.550;2024-03-08T01:21:26;99919.41;;;1.73;64.07
72855;BME280;60991;51.278;22.550;2024-03-08T01:22:56;99911.56;;;1.73;63.89
72855;BME280;60991;51.278;22.550;2024-03-08T01:24:26;99913.38;;;1.72;64.70
72855;BME280;60991;51.278;22.550;2024-03-08T01:25:57;99919.75;;;1.70;64.22
72855;BME280;60991;51.278;22.550;2024-03-08T01:27:27;99918.47;;;1.66;64.22
72855;BME280;60991;51.278;22.550;2024-03-08T01:28:57;99916.19;;;1.63;64.49
72855;BME280;60991;51.278;22.550;2024-03-08T01:30:27;99914.72;;;1.60;64.63
72855;BME280;60991;51.278;22.550;2024-03-08T01:31:57;99914.88;;;1.59;64.66
72855;BME280;60991;51.278;22.550;2024-03-08T01:33:28;99911.78;;;1.55;64.46
72855;BME280;60991;51.278;22.550;2024-03-08T01:34:58;99913.72;;;1.53;65.03
72855;BME280;60991;51.278;22.550;2024-03-08T01:36:28;99908.81;;;1.50;65.23
72855;BME280;60991;51.278;22.550;2024-03-08T01:37:58;99905.75;;;1.47;65.11
72855;BME280;60991;51.278;22.550;2024-03-08T01:39:29;99906.91;;;1.44;64.91
72855;BME280;60991;51.278;22.550;2024-03-08T01:40:59;99902.81;;;1.42;65.04
72855;BME280;60991;51.278;22.550;2024-03-08T01:42:29;99903.13;;;1.38;64.88
72855;BME280;60991;51.278;22.550;2024-03-08T01:43:59;99912.13;;;1.36;65.10
72855;BME280;60991;51.278;22.550;2024-03-08T01:45:29;99913.75;;;1.37;65.24
72855;BME280;60991;51.278;22.550;2024-03-08T01:47:00;99906.72;;;1.37;65.81
72855;BME280;60991;51.278;22.550;2024-03-08T01:48:30;99909.00;;;1.41;65.63
72855;BME280;60991;51.278;22.550;2024-03-08T01:50:02;99911.31;;;1.44;65.68
72855;BME280;60991;51.278;22.550;2024-03-08T01:51:32;99909.50;;;1.44;65.07
72855;BME280;60991;51.278;22.550;2024-03-08T01:53:03;99909.66;;;1.43;65.91
72855;BME280;60991;51.278;22.550;2024-03-08T01:54:34;99902.97;;;1.40;65.32
72855;BME280;60991;51.278;22.550;2024-03-08T01:56:05;99903.94;;;1.39;65.61
72855;BME280;60991;51.278;22.550;2024-03-08T01:57:36;99905.75;;;1.38;65.59
72855;BME280;60991;51.278;22.550;2024-03-08T01:59:07;99905.59;;;1.40;65.82
72855;BME280;60991;51.278;22.550;2024-03-08T02:00:39;99901.16;;;1.41;65.73
72855;BME280;60991;51.278;22.550;2024-03-08T02:02:11;99899.22;;;1.43;65.31
72855;BME280;60991;51.278;22.550;2024-03-08T02:03:42;99901.50;;;1.46;65.97
72855;BME280;60991;51.278;22.550;2024-03-08T02:05:14;99903.75;;;1.49;65.41
72855;BME280;60991;51.278;22.550;2024-03-08T02:06:45;99895.91;;;1.49;65.23
72855;BME280;60991;51.278;22.550;2024-03-08T02:08:16;99899.34;;;1.49;65.14
72855;BME280;60991;51.278;22.550;2024-03-08T02:09:46;99897.91;;;1.47;65.49
72855;BME280;60991;51.278;22.550;2024-03-08T02:11:16;99896.25;;;1.46;65.25
72855;BME280;60991;51.278;22.550;2024-03-08T02:12:47;99896.25;;;1.46;65.36
72855;BME280;60991;51.278;22.550;2024-03-08T02:14:17;99892.66;;;1.47;65.60
72855;BME280;60991;51.278;22.550;2024-03-08T02:15:52;99888.41;;;1.46;65.86
72855;BME280;60991;51.278;22.550;2024-03-08T02:17:22;99887.28;;;1.48;65.39
72855;BME280;60991;51.278;22.550;2024-03-08T02:18:52;99888.88;;;1.49;65.33
72855;BME280;60991;51.278;22.550;2024-03-08T02:20:22;99883.03;;;1.47;65.72
72855;BME280;60991;51.278;22.550;2024-03-08T02:21:53;99887.44;;;1.47;65.78
72855;BME280;60991;51.278;22.550;2024-03-08T02:23:23;99888.25;;;1.47;65.39
72855;BME280;60991;51.278;22.550;2024-03-08T02:24:55;99890.06;;;1.47;65.26
72855;BME280;60991;51.278;22.550;2024-03-08T02:26:25;99891.69;;;1.48;65.76
72855;BME280;60991;51.278;22.550;2024-03-08T02:27:55;99886.63;;;1.46;65.42
72855;BME280;60991;51.278;22.550;2024-03-08T02:29:26;99892.00;;;1.45;65.39
72855;BME280;60991;51.278;22.550;2024-03-08T02:30:56;99888.91;;;1.41;65.14
72855;BME280;60991;51.278;22.550;2024-03-08T02:32:26;99887.09;;;1.33;65.02
72855;BME280;60991;51.278;22.550;2024-03-08T02:33:56;99887.94;;;1.26;65.64
72855;BME280;60991;51.278;22.550;2024-03-08T02:35:26;99882.22;;;1.22;65.81
72855;BME280;60991;51.278;22.550;2024-03-08T02:36:57;99886.81;;;1.20;65.98
72855;BME280;60991;51.278;22.550;2024-03-08T02:38:27;99889.59;;;1.19;66.46
72855;BME280;60991;51.278;22.550;2024-03-08T02:39:57;99883.38;;;1.20;66.24
72855;BME280;60991;51.278;22.550;2024-03-08T02:41:27;99877.16;;;1.21;66.78
72855;BME280;60991;51.278;22.550;2024-03-08T02:42:57;99882.22;;;1.22;66.33
72855;BME280;60991;51.278;22.550;2024-03-08T02:44:28;99878.63;;;1.23;65.94
72855;BME280;60991;51.278;22.550;2024-03-08T02:45:58;99884.53;;;1.25;66.56
72855;BME280;60991;51.278;22.550;2024-03-08T02:47:28;99879.63;;;1.22;66.14
72855;BME280;60991;51.278;22.550;2024-03-08T02:48:58;99882.72;;;1.18;66.64
72855;BME280;60991;51.278;22.550;2024-03-08T02:50:28;99891.88;;;1.14;66.91
72855;BME280;60991;51.278;22.550;2024-03-08T02:51:59;99882.09;;;1.08;66.70
72855;BME280;60991;51.278;22.550;2024-03-08T02:53:29;99881.75;;;1.02;66.94
72855;BME280;60991;51.278;22.550;2024-03-08T02:54:59;99879.78;;;0.96;66.90
72855;BME280;60991;51.278;22.550;2024-03-08T02:56:29;99880.75;;;0.95;67.44
72855;BME280;60991;51.278;22.550;2024-03-08T02:57:59;99882.88;;;1.00;67.37
72855;BME280;60991;51.278;22.550;2024-03-08T02:59:30;99879.13;;;1.02;67.56
72855;BME280;60991;51.278;22.550;2024-03-08T03:01:00;99884.03;;;1.06;66.94
72855;BME280;60991;51.278;22.550;2024-03-08T03:02:30;99881.75;;;1.11;66.73
72855;BME280;60991;51.278;22.550;2024-03-08T03:04:00;99882.38;;;1.13;66.99
72855;BME280;60991;51.278;22.550;2024-03-08T03:05:30;99873.25;;;1.17;66.58
72855;BME280;60991;51.278;22.550;2024-03-08T03:07:01;99874.06;;;1.17;66.53
72855;BME280;60991;51.278;22.550;2024-03-08T03:08:31;99871.75;;;1.14;66.39
72855;BME280;60991;51.278;22.550;2024-03-08T03:10:02;99879.97;;;1.11;66.92
72855;BME280;60991;51.278;22.550;2024-03-08T03:11:32;99879.31;;;1.09;66.80
72855;BME280;60991;51.278;22.550;2024-03-08T03:13:02;99877.50;;;1.10;66.83
72855;BME280;60991;51.278;22.550;2024-03-08T03:14:35;99866.06;;;1.11;66.77
72855;BME280;60991;51.278;22.550;2024-03-08T03:16:05;99885.81;;;1.13;66.42
72855;BME280;60991;51.278;22.550;2024-03-08T03:17:35;99871.75;;;1.14;66.39
72855;BME280;60991;51.278;22.550;2024-03-08T03:19:05;99881.41;;;1.14;66.64
72855;BME280;60991;51.278;22.550;2024-03-08T03:20:36;99869.50;;;1.11;66.47
72855;BME280;60991;51.278;22.550;2024-03-08T03:22:06;99879.78;;;1.13;66.54
72855;BME280;60991;51.278;22.550;2024-03-08T03:23:36;99877.34;;;1.11;65.79
72855;BME280;60991;51.278;22.550;2024-03-08T03:25:10;99876.03;;;1.07;66.28
72855;BME280;60991;51.278;22.550;2024-03-08T03:26:40;99873.41;;;1.07;66.65
72855;BME280;60991;51.278;22.550;2024-03-08T03:28:10;99876.19;;;1.06;66.41
72855;BME280;60991;51.278;22.550;2024-03-08T03:29:41;99872.94;;;1.03;66.73
72855;BME280;60991;51.278;22.550;2024-03-08T03:31:12;99876.03;;;1.07;66.70
72855;BME280;60991;51.278;22.550;2024-03-08T03:32:42;99879.16;;;1.11;65.93
72855;BME280;60991;51.278;22.550;2024-03-08T03:34:12;99865.25;;;1.10;66.02
72855;BME280;60991;51.278;22.550;2024-03-08T03:35:43;99869.50;;;1.03;66.25
72855;BME280;60991;51.278;22.550;2024-03-08T03:37:13;99876.19;;;0.97;66.20
72855;BME280;60991;51.278;22.550;2024-03-08T03:38:43;99870.16;;;0.89;66.25
72855;BME280;60991;51.278;22.550;2024-03-08T03:40:13;99867.69;;;0.87;66.36
72855;BME280;60991;51.278;22.550;2024-03-08T03:41:44;99874.22;;;0.83;66.80
72855;BME280;60991;51.278;22.550;2024-03-08T03:43:14;99868.66;;;0.78;67.01
72855;BME280;60991;51.278;22.550;2024-03-08T03:44:45;99866.06;;;0.78;67.20
72855;BME280;60991;51.278;22.550;2024-03-08T03:46:16;99866.72;;;0.80;66.46
72855;BME280;60991;51.278;22.550;2024-03-08T03:47:46;99861.00;;;0.77;66.75
72855;BME280;60991;51.278;22.550;2024-03-08T03:49:16;99864.41;;;0.77;66.92
72855;BME280;60991;51.278;22.550;2024-03-08T03:50:46;99861.16;;;0.75;66.25
72855;BME280;60991;51.278;22.550;2024-03-08T03:52:17;99864.78;;;0.74;66.60
72855;BME280;60991;51.278;22.550;2024-03-08T03:53:47;99856.44;;;0.71;66.70
72855;BME280;60991;51.278;22.550;2024-03-08T03:55:17;99849.22;;;0.64;66.88
72855;BME280;60991;51.278;22.550;2024-03-08T03:56:48;99861.63;;;0.62;67.10
72855;BME280;60991;51.278;22.550;2024-03-08T03:58:18;99857.03;;;0.56;67.09
72855;BME280;60991;51.278;22.550;2024-03-08T03:59:48;99862.28;;;0.56;66.63
72855;BME280;60991;51.278;22.550;2024-03-08T04:01:19;99866.53;;;0.57;67.47
72855;BME280;60991;51.278;22.550;2024-03-08T04:02:49;99867.19;;;0.59;67.37
72855;BME280;60991;51.278;22.550;2024-03-08T04:04:20;99864.06;;;0.56;67.27
72855;BME280;60991;51.278;22.550;2024-03-08T04:05:50;99859.34;;;0.59;67.74
72855;BME280;60991;51.278;22.550;2024-03-08T04:07:20;99860.16;;;0.60;67.92
72855;BME280;60991;51.278;22.550;2024-03-08T04:08:51;99859.66;;;0.56;67.74
72855;BME280;60991;51.278;22.550;2024-03-08T04:10:21;99847.59;;;0.55;67.72
72855;BME280;60991;51.278;22.550;2024-03-08T04:11:51;99855.25;;;0.57;67.65
72855;BME280;60991;51.278;22.550;2024-03-08T04:13:21;99849.72;;;0.52;68.05
72855;BME280;60991;51.278;22.550;2024-03-08T04:14:52;99850.03;;;0.49;68.18
72855;BME280;60991;51.278;22.550;2024-03-08T04:16:22;99852.97;;;0.46;68.21
72855;BME280;60991;51.278;22.550;2024-03-08T04:17:52;99840.53;;;0.40;68.30
72855;BME280;60991;51.278;22.550;2024-03-08T04:19:22;99846.59;;;0.32;68.79
72855;BME280;60991;51.278;22.550;2024-03-08T04:20:52;99846.91;;;0.29;68.93
72855;BME280;60991;51.278;22.550;2024-03-08T04:22:23;99844.09;;;0.22;69.12
72855;BME280;60991;51.278;22.550;2024-03-08T04:23:53;99845.88;;;0.22;69.04
72855;BME280;60991;51.278;22.550;2024-03-08T04:25:23;99848.03;;;0.18;68.67
72855;BME280;60991;51.278;22.550;2024-03-08T04:26:53;99847.00;;;0.11;69.27
72855;BME280;60991;51.278;22.550;2024-03-08T04:28:23;99847.69;;;0.13;69.17
72855;BME280;60991;51.278;22.550;2024-03-08T04:29:54;99856.16;;;0.15;69.22
72855;BME280;60991;51.278;22.550;2024-03-08T04:31:24;99853.06;;;0.20;69.17
72855;BME280;60991;51.278;22.550;2024-03-08T04:32:54;99851.09;;;0.22;68.88
72855;BME280;60991;51.278;22.550;2024-03-08T04:34:24;99860.41;;;0.24;69.12
72855;BME280;60991;51.278;22.550;2024-03-08T04:35:54;99848.84;;;0.27;68.72
72855;BME280;60991;51.278;22.550;2024-03-08T04:37:25;99848.69;;;0.28;68.77
72855;BME280;60991;51.278;22.550;2024-03-08T04:38:55;99851.13;;;0.30;68.65
72855;BME280;60991;51.278;22.550;2024-03-08T04:40:25;99850.31;;;0.29;69.14
72855;BME280;60991;51.278;22.550;2024-03-08T04:41:59;99852.94;;;0.29;69.30
72855;BME280;60991;51.278;22.550;2024-03-08T04:43:30;99842.66;;;0.28;69.22
72855;BME280;60991;51.278;22.550;2024-03-08T04:45:01;99852.44;;;0.26;69.03
72855;BME280;60991;51.278;22.550;2024-03-08T04:46:31;99843.78;;;0.25;69.34
72855;BME280;60991;51.278;22.550;2024-03-08T04:48:01;99849.34;;;0.30;69.39
72855;BME280;60991;51.278;22.550;2024-03-08T04:49:34;99857.69;;;0.34;69.26
72855;BME280;60991;51.278;22.550;2024-03-08T04:51:04;99845.09;;;0.38;69.05
72855;BME280;60991;51.278;22.550;2024-03-08T04:52:35;99850.81;;;0.33;69.29
72855;BME280;60991;51.278;22.550;2024-03-08T04:54:05;99849.19;;;0.32;69.09
72855;BME280;60991;51.278;22.550;2024-03-08T04:55:35;99840.84;;;0.28;69.50
72855;BME280;60991;51.278;22.550;2024-03-08T04:57:05;99849.50;;;0.29;68.94
72855;BME280;60991;51.278;22.550;2024-03-08T04:58:36;99846.91;;;0.29;69.21
72855;BME280;60991;51.278;22.550;2024-03-08T05:00:06;99844.13;;;0.30;69.10
72855;BME280;60991;51.278;22.550;2024-03-08T05:01:37;99849.69;;;0.36;68.84
72855;BME280;60991;51.278;22.550;2024-03-08T05:03:07;99847.72;;;0.38;68.88
72855;BME280;60991;51.278;22.550;2024-03-08T05:04:37;99849.34;;;0.39;68.37
72855;BME280;60991;51.278;22.550;2024-03-08T05:06:07;99844.78;;;0.41;68.73
72855;BME280;60991;51.278;22.550;2024-03-08T05:07:38;99847.72;;;0.38;69.15
72855;BME280;60991;51.278;22.550;2024-03-08T05:09:08;99849.53;;;0.37;68.84
72855;BME280;60991;51.278;22.550;2024-03-08T05:10:39;99849.34;;;0.39;69.08
72855;BME280;60991;51.278;22.550;2024-03-08T05:12:09;99852.47;;;0.42;68.86
72855;BME280;60991;51.278;22.550;2024-03-08T05:13:39;99850.50;;;0.44;68.87
72855;BME280;60991;51.278;22.550;2024-03-08T05:15:09;99850.50;;;0.44;68.68
72855;BME280;60991;51.278;22.550;2024-03-08T05:16:39;99852.97;;;0.46;68.83
72855;BME280;60991;51.278;22.550;2024-03-08T05:18:10;99854.28;;;0.50;68.43
72855;BME280;60991;51.278;22.550;2024-03-08T05:19:40;99855.59;;;0.54;68.68
72855;BME280;60991;51.278;22.550;2024-03-08T05:21:10;99856.06;;;0.57;68.31
72855;BME280;60991;51.278;22.550;2024-03-08T05:22:40;99853.13;;;0.60;67.80
72855;BME280;60991;51.278;22.550;2024-03-08T05:24:12;99852.81;;;0.63;68.32
72855;BME280;60991;51.278;22.550;2024-03-08T05:25:42;99855.94;;;0.67;67.57
72855;BME280;60991;51.278;22.550;2024-03-08T05:27:12;99860.69;;;0.72;67.93
72855;BME280;60991;51.278;22.550;2024-03-08T05:28:42;99865.41;;;0.76;68.20
72855;BME280;60991;51.278;22.550;2024-03-08T05:30:13;99860.50;;;0.81;67.53
72855;BME280;60991;51.278;22.550;2024-03-08T05:31:47;99859.38;;;0.84;67.43
72855;BME280;60991;51.278;22.550;2024-03-08T05:33:18;99858.88;;;0.88;67.54
72855;BME280;60991;51.278;22.550;2024-03-08T05:34:48;99864.63;;;0.92;67.34
72855;BME280;60991;51.278;22.550;2024-03-08T05:36:18;99857.22;;;0.95;67.17
72855;BME280;60991;51.278;22.550;2024-03-08T05:37:48;99863.13;;;0.97;67.33
72855;BME280;60991;51.278;22.550;2024-03-08T05:39:19;99870.63;;;1.00;67.04
72855;BME280;60991;51.278;22.550;2024-03-08T05:40:49;99863.63;;;1.01;66.75
72855;BME280;60991;51.278;22.550;2024-03-08T05:42:19;99869.66;;;1.01;67.06
72855;BME280;60991;51.278;22.550;2024-03-08T05:43:49;99862.63;;;1.02;67.40
72855;BME280;60991;51.278;22.550;2024-03-08T05:45:19;99863.78;;;0.99;66.85
72855;BME280;60991;51.278;22.550;2024-03-08T05:46:50;99864.75;;;0.98;67.40
72855;BME280;60991;51.278;22.550;2024-03-08T05:48:20;99867.19;;;1.00;67.17
72855;BME280;60991;51.278;22.550;2024-03-08T05:49:50;99859.38;;;1.00;67.27
72855;BME280;60991;51.278;22.550;2024-03-08T05:51:20;99866.88;;;1.03;67.55
72855;BME280;60991;51.278;22.550;2024-03-08T05:52:53;99862.63;;;1.02;67.02
72855;BME280;60991;51.278;22.550;2024-03-08T05:54:23;99852.84;;;1.04;67.34
72855;BME280;60991;51.278;22.550;2024-03-08T05:55:53;99861.16;;;1.08;67.11
72855;BME280;60991;51.278;22.550;2024-03-08T05:57:23;99861.81;;;1.10;67.08
72855;BME280;60991;51.278;22.550;2024-03-08T05:58:54;99854.81;;;1.10;67.36
72855;BME280;60991;51.278;22.550;2024-03-08T06:00:24;99854.59;;;1.12;67.31
72855;BME280;60991;51.278;22.550;2024-03-08T06:01:54;99857.88;;;1.14;67.19
72855;BME280;60991;51.278;22.550;2024-03-08T06:03:24;99856.91;;;1.15;67.54
72855;BME280;60991;51.278;22.550;2024-03-08T06:04:54;99855.59;;;1.19;67.65
72855;BME280;60991;51.278;22.550;2024-03-08T06:06:25;99860.66;;;1.20;67.59
72855;BME280;60991;51.278;22.550;2024-03-08T06:07:56;99858.84;;;1.21;67.36
72855;BME280;60991;51.278;22.550;2024-03-08T06:09:26;99865.22;;;1.18;67.68
72855;BME280;60991;51.278;22.550;2024-03-08T06:10:56;99861.81;;;1.18;67.56
72855;BME280;60991;51.278;22.550;2024-03-08T06:12:26;99866.06;;;1.19;67.64
72855;BME280;60991;51.278;22.550;2024-03-08T06:13:56;99864.75;;;1.23;67.56
72855;BME280;60991;51.278;22.550;2024-03-08T06:15:27;99861.81;;;1.26;67.58
72855;BME280;60991;51.278;22.550;2024-03-08T06:16:57;99859.84;;;1.28;67.45
72855;BME280;60991;51.278;22.550;2024-03-08T06:18:27;99863.91;;;1.30;67.23
72855;BME280;60991;51.278;22.550;2024-03-08T06:19:58;99866.72;;;1.29;67.88
72855;BME280;60991;51.278;22.550;2024-03-08T06:21:28;99862.75;;;1.33;68.05
72855;BME280;60991;51.278;22.550;2024-03-08T06:22:58;99863.06;;;1.38;67.99
72855;BME280;60991;51.278;22.550;2024-03-08T06:24:28;99862.44;;;1.44;67.18
72855;BME280;60991;51.278;22.550;2024-03-08T06:25:59;99862.72;;;1.49;67.54
72855;BME280;60991;51.278;22.550;2024-03-08T06:27:29;99858.31;;;1.50;67.08
72855;BME280;60991;51.278;22.550;2024-03-08T06:28:59;99858.50;;;1.48;67.34
72855;BME280;60991;51.278;22.550;2024-03-08T06:30:30;99861.75;;;1.50;67.27
72855;BME280;60991;51.278;22.550;2024-03-08T06:32:00;99857.31;;;1.51;67.59
72855;BME280;60991;51.278;22.550;2024-03-08T06:33:30;99865.16;;;1.51;67.08
72855;BME280;60991;51.278;22.550;2024-03-08T06:35:10;99865.81;;;1.53;67.39
72855;BME280;60991;51.278;22.550;2024-03-08T06:36:40;99861.41;;;1.53;67.88
72855;BME280;60991;51.278;22.550;2024-03-08T06:38:10;99862.22;;;1.54;67.78
72855;BME280;60991;51.278;22.550;2024-03-08T06:39:40;99867.47;;;1.54;67.72
72855;BME280;60991;51.278;22.550;2024-03-08T06:41:10;99860.25;;;1.56;67.31
72855;BME280;60991;51.278;22.550;2024-03-08T06:42:41;99865.16;;;1.59;67.87
72855;BME280;60991;51.278;22.550;2024-03-08T06:44:11;99866.47;;;1.63;67.52
72855;BME280;60991;51.278;22.550;2024-03-08T06:45:42;99865.16;;;1.67;67.11
72855;BME280;60991;51.278;22.550;2024-03-08T06:47:12;99866.59;;;1.69;67.41
72855;BME280;60991;51.278;22.550;2024-03-08T06:48:43;99860.69;;;1.76;67.52
72855;BME280;60991;51.278;22.550;2024-03-08T06:50:13;99855.78;;;1.81;67.48
72855;BME280;60991;51.278;22.550;2024-03-08T06:51:43;99858.06;;;1.84;67.50
72855;BME280;60991;51.278;22.550;2024-03-08T06:53:14;99860.31;;;1.87;67.28
72855;BME280;60991;51.278;22.550;2024-03-08T06:54:44;99860.16;;;1.88;66.48
72855;BME280;60991;51.278;22.550;2024-03-08T06:56:14;99859.00;;;1.91;66.94
72855;BME280;60991;51.278;22.550;2024-03-08T06:57:44;99854.88;;;1.96;67.02
72855;BME280;60991;51.278;22.550;2024-03-08T06:59:15;99856.19;;;2.00;67.00
72855;BME280;60991;51.278;22.550;2024-03-08T07:00:45;99857.66;;;2.03;67.56
72855;BME280;60991;51.278;22.550;2024-03-08T07:02:15;99853.69;;;2.07;67.63
72855;BME280;60991;51.278;22.550;2024-03-08T07:03:45;99860.38;;;2.09;67.44
72855;BME280;60991;51.278;22.550;2024-03-08T07:05:16;99854.47;;;2.16;67.41
72855;BME280;60991;51.278;22.550;2024-03-08T07:06:46;99857.03;;;2.24;67.97
72855;BME280;60991;51.278;22.550;2024-03-08T07:08:16;99854.88;;;2.27;68.00
72855;BME280;60991;51.278;22.550;2024-03-08T07:09:46;99859.44;;;2.33;67.66
72855;BME280;60991;51.278;22.550;2024-03-08T07:11:17;99858.94;;;2.38;67.89
72855;BME280;60991;51.278;22.550;2024-03-08T07:12:47;99855.97;;;2.41;67.30
72855;BME280;60991;51.278;22.550;2024-03-08T07:14:17;99850.38;;;2.44;67.06
72855;BME280;60991;51.278;22.550;2024-03-08T07:15:47;99859.19;;;2.51;67.12
72855;BME280;60991;51.278;22.550;2024-03-08T07:17:17;99854.88;;;2.58;67.23
72855;BME280;60991;51.278;22.550;2024-03-08T07:18:48;99863.50;;;2.67;67.14
72855;BME280;60991;51.278;22.550;2024-03-08T07:20:18;99860.19;;;2.73;67.15
72855;BME280;60991;51.278;22.550;2024-03-08T07:21:48;99858.28;;;2.82;67.21
72855;BME280;60991;51.278;22.550;2024-03-08T07:23:18;99858.06;;;2.91;67.08
72855;BME280;60991;51.278;22.550;2024-03-08T07:24:49;99851.94;;;2.99;66.26
72855;BME280;60991;51.278;22.550;2024-03-08T07:26:20;99851.41;;;3.03;65.81
72855;BME280;60991;51.278;22.550;2024-03-08T07:27:51;99859.56;;;3.08;66.37
72855;BME280;60991;51.278;22.550;2024-03-08T07:29:22;99856.47;;;3.05;66.36
72855;BME280;60991;51.278;22.550;2024-03-08T07:30:52;99858.22;;;3.12;65.94
72855;BME280;60991;51.278;22.550;2024-03-08T07:32:22;99859.94;;;3.20;66.01
72855;BME280;60991;51.278;22.550;2024-03-08T07:33:52;99862.84;;;3.25;66.00
72855;BME280;60991;51.278;22.550;2024-03-08T07:35:23;99863.31;;;3.29;65.39
72855;BME280;60991;51.278;22.550;2024-03-08T07:36:53;99870.09;;;3.38;65.18
72855;BME280;60991;51.278;22.550;2024-03-08T07:38:23;99863.16;;;3.45;64.71
72855;BME280;60991;51.278;22.550;2024-03-08T07:39:53;99861.16;;;3.47;64.69
72855;BME280;60991;51.278;22.550;2024-03-08T07:41:23;99864.44;;;3.49;64.75
72855;BME280;60991;51.278;22.550;2024-03-08T07:42:54;99856.38;;;3.51;65.41
72855;BME280;60991;51.278;22.550;2024-03-08T07:44:24;99863.25;;;3.52;65.36
72855;BME280;60991;51.278;22.550;2024-03-08T07:45:54;99861.53;;;3.59;65.24
72855;BME280;60991;51.278;22.550;2024-03-08T07:47:24;99869.41;;;3.59;65.36
72855;BME280;60991;51.278;22.550;2024-03-08T07:48:54;99856.00;;;3.54;64.88
72855;BME280;60991;51.278;22.550;2024-03-08T07:50:25;99856.63;;;3.56;65.14
72855;BME280;60991;51.278;22.550;2024-03-08T07:51:58;99862.91;;;3.69;64.61
72855;BME280;60991;51.278;22.550;2024-03-08T07:53:29;99855.56;;;3.79;64.86
72855;BME280;60991;51.278;22.550;2024-03-08T07:54:59;99859.72;;;3.89;64.44
72855;BME280;60991;51.278;22.550;2024-03-08T07:56:29;99861.59;;;3.95;64.47
72855;BME280;60991;51.278;22.550;2024-03-08T07:57:59;99867.31;;;3.98;64.31